Time;durP1;ratioP1;P1;durP2;ratioP2;P2;SDS_P1;SDS_P2;PMS_P1;PMS_P2;Temp;Humidity;BMP_temperature;BMP_pressure;BME280_temperature;BME280_humidity;BME280_pressure;Samples;Min_cycle;Max_cycle;Signal;HPM_P1;HPM_P2
2020/12/18 00:01:31;;;;;;;81.78;37.00;;;;;;;7.85;54.74;101955.45;1742405;80;21170;-80
2020/12/18 00:03:59;;;;;;;83.92;36.88;;;;;;;7.87;54.70;101960.71;1778329;80;21383;-79
2020/12/18 00:06:34;;;;;;;85.83;36.23;;;;;;;7.88;54.64;101960.59;1778525;80;21517;-80
2020/12/18 00:09:05;;;;;;;78.28;35.08;;;;;;;7.87;54.60;101965.56;1778802;80;21156;-79
2020/12/18 00:11:34;;;;;;;88.52;38.85;;;;;;;7.83;54.59;101965.87;1778859;80;21190;-78
2020/12/18 00:14:02;;;;;;;83.25;38.40;;;;;;;7.82;54.66;101964.17;1778824;80;21201;-79
2020/12/18 00:16:32;;;;;;;92.85;41.02;;;;;;;7.82;54.73;101961.02;1778704;80;21953;-78
2020/12/18 00:18:59;;;;;;;84.30;39.95;;;;;;;7.86;54.74;101964.34;1761193;81;21157;-79
2020/12/18 00:21:27;;;;;;;84.20;37.13;;;;;;;7.87;54.63;101958.05;1780294;80;21146;-78
2020/12/18 00:23:55;;;;;;;80.62;35.95;;;;;;;7.87;54.64;101960.71;1780199;80;21180;-78
2020/12/18 00:26:23;;;;;;;86.40;36.60;;;;;;;7.87;54.63;101960.23;1760268;80;21080;-78
2020/12/18 00:28:51;;;;;;;78.83;34.80;;;;;;;8.08;54.22;101960.59;1755678;81;21960;-78
2020/12/18 00:31:18;;;;;;;81.80;35.45;;;;;;;8.12;54.07;101956.72;1755493;81;21618;-78
2020/12/18 00:33:47;;;;;;;80.00;34.15;;;;;;;8.13;54.00;101957.12;1755767;81;21148;-78
2020/12/18 00:36:14;;;;;;;86.02;39.50;;;;;;;8.12;53.92;101956.72;1756069;81;21578;-78
2020/12/18 00:38:42;;;;;;;81.87;36.83;;;;;;;8.16;53.86;101957.86;1755916;81;21148;-80
2020/12/18 00:41:12;;;;;;;79.40;37.42;;;;;;;8.17;53.78;101948.40;1756224;81;21799;-78
2020/12/18 00:43:40;;;;;;;83.62;36.75;;;;;;;8.17;53.81;101949.73;1755417;81;21172;-77
2020/12/18 00:46:07;;;;;;;74.35;34.15;;;;;;;8.16;53.84;101948.03;1755975;81;21184;-78
2020/12/18 00:48:36;;;;;;;78.85;34.18;;;;;;;8.22;53.67;101945.41;1755749;81;21172;-80
2020/12/18 00:51:06;;;;;;;72.58;32.53;;;;;;;8.24;53.58;101939.50;1753735;81;21551;-77
2020/12/18 00:53:36;;;;;;;74.58;35.73;;;;;;;8.23;53.52;101937.80;1755997;81;22028;-78
2020/12/18 00:56:09;;;;;;;74.92;34.25;;;;;;;8.22;53.50;101937.41;1755980;81;21172;-78
2020/12/18 00:58:39;;;;;;;75.83;32.93;;;;;;;8.19;53.52;101937.64;1755894;81;21156;-79
2020/12/18 01:01:06;;;;;;;75.55;34.48;;;;;;;8.19;53.52;101933.63;1699048;81;22342;-81
2020/12/18 01:03:34;;;;;;;76.50;33.08;;;;;;;8.22;53.48;101926.72;1756057;81;21164;-77
2020/12/18 01:06:12;;;;;;;76.55;35.73;;;;;;;8.22;53.40;101931.61;1756132;81;22164;-79
2020/12/18 01:08:42;;;;;;;72.62;32.98;;;;;;;8.23;53.41;101931.13;1754490;81;21598;-80
2020/12/18 01:11:12;;;;;;;69.47;31.75;;;;;;;8.24;53.42;101937.69;1756072;81;21625;-78
2020/12/18 01:13:40;;;;;;;67.42;32.45;;;;;;;8.24;53.42;101931.49;1755777;81;21143;-80
2020/12/18 01:16:12;;;;;;;67.47;31.17;;;;;;;8.25;53.42;101926.52;1722069;81;21191;-77
2020/12/18 01:18:42;;;;;;;65.25;31.27;;;;;;;8.26;53.40;101921.55;1755432;81;21178;-77
2020/12/18 01:21:11;;;;;;;63.60;30.88;;;;;;;8.26;53.36;101919.73;1751198;81;21192;-77
2020/12/18 01:23:41;;;;;;;69.27;30.15;;;;;;;8.26;53.35;101921.06;1755621;81;21140;-80
2020/12/18 01:26:11;;;;;;;67.03;31.40;;;;;;;8.26;53.34;101921.55;1755442;81;21710;-78
2020/12/18 01:28:39;;;;;;;59.55;29.02;;;;;;;8.27;53.30;101916.61;1755180;81;21634;-78
2020/12/18 01:31:07;;;;;;;56.48;27.70;;;;;;;8.25;53.23;101907.84;1755324;81;21203;-78
2020/12/18 01:33:35;;;;;;;46.58;25.48;;;;;;;8.18;53.18;101913.25;1755234;81;21159;-77
2020/12/18 01:36:05;;;;;;;48.45;26.30;;;;;;;8.12;53.26;101915.36;1755315;81;21694;-79
2020/12/18 01:38:35;;;;;;;47.70;26.20;;;;;;;7.90;53.68;101917.80;1755623;80;21183;-78
2020/12/18 01:41:04;;;;;;;46.42;25.62;;;;;;;7.75;53.93;101918.85;1722677;81;21175;-79
2020/12/18 01:43:32;;;;;;;53.23;26.23;;;;;;;7.65;54.12;101920.44;1755831;81;21441;-78
2020/12/18 01:46:05;;;;;;;46.15;23.10;;;;;;;7.57;54.33;101920.47;1756200;81;21735;-78
2020/12/18 01:48:33;;;;;;;54.80;28.60;;;;;;;7.50;54.51;101917.85;1756084;81;21136;-79
2020/12/18 01:51:03;;;;;;;51.75;27.22;;;;;;;7.46;54.66;101916.83;1755665;81;21195;-80
2020/12/18 01:53:32;;;;;;;58.10;27.77;;;;;;;7.44;54.81;101918.23;1756096;81;21148;-79
2020/12/18 01:56:03;;;;;;;47.62;24.50;;;;;;;7.40;54.92;101911.39;1754260;81;22191;-79
2020/12/18 01:58:40;;;;;;;50.55;24.55;;;;;;;7.37;54.97;101916.47;1755922;81;21156;-79
2020/12/18 02:01:10;;;;;;;52.23;25.30;;;;;;;7.33;55.05;101914.97;1753853;81;21464;-79
2020/12/18 02:03:39;;;;;;;44.75;22.73;;;;;;;7.32;54.99;101911.93;1754388;81;21491;-78
2020/12/18 02:06:17;;;;;;;36.77;19.30;;;;;;;7.29;55.04;101915.27;1755492;81;21144;-78
2020/12/18 02:08:53;;;;;;;49.00;23.38;;;;;;;7.25;55.11;101917.75;1755866;81;21286;-78
2020/12/18 02:11:31;;;;;;;43.25;22.07;;;;;;;7.18;55.27;101921.80;1756140;81;21655;-80
2020/12/18 02:14:01;;;;;;;45.63;22.93;;;;;;;7.12;55.37;101918.55;1755952;81;21179;-79
2020/12/18 02:16:31;;;;;;;43.92;22.80;;;;;;;7.33;54.96;101919.44;1755532;81;21164;-79
2020/12/18 02:19:01;;;;;;;44.75;22.40;;;;;;;7.16;55.33;101922.36;1755274;81;21161;-81
2020/12/18 02:21:37;;;;;;;43.28;21.10;;;;;;;7.10;55.47;101921.80;1755703;81;22357;-80
2020/12/18 02:24:08;;;;;;;36.77;19.17;;;;;;;7.08;55.53;101927.69;1755844;81;21168;-80
2020/12/18 02:26:37;;;;;;;39.42;18.42;;;;;;;7.05;55.61;101924.40;1755827;81;21129;-80
2020/12/18 02:29:06;;;;;;;48.52;22.75;;;;;;;6.98;55.70;101925.25;1722544;81;21667;-79
2020/12/18 02:31:41;;;;;;;51.45;24.05;;;;;;;6.93;55.85;101917.19;1755894;81;21135;-80
2020/12/18 02:34:16;;;;;;;51.45;23.67;;;;;;;6.88;56.00;101914.83;1737940;81;21378;-79
2020/12/18 02:36:45;;;;;;;52.67;24.05;;;;;;;6.89;56.03;101915.20;1697941;81;21634;-80
2020/12/18 02:39:13;;;;;;;48.30;22.85;;;;;;;6.90;56.06;101921.37;1755356;81;21176;-77
2020/12/18 02:41:44;;;;;;;50.33;24.32;;;;;;;6.98;55.91;101918.59;1755085;81;21092;-80
2020/12/18 02:44:17;;;;;;;54.60;23.20;;;;;;;7.20;55.42;101925.20;1754211;81;21611;-79
2020/12/18 02:46:56;;;;;;;48.73;22.42;;;;;;;7.26;55.25;101924.79;1732278;81;21285;-79
2020/12/18 02:49:24;;;;;;;54.73;24.82;;;;;;;7.31;55.17;101923.55;1755559;81;21142;-81
2020/12/18 02:51:52;;;;;;;57.83;26.23;;;;;;;7.34;55.10;101923.81;1756451;81;21475;-80
2020/12/18 02:54:39;;;;;;;63.45;26.60;;;;;;;7.36;55.15;101925.44;1751558;81;21172;-80
2020/12/18 02:57:09;;;;;;;60.23;25.17;;;;;;;7.39;55.11;101924.36;1717565;81;21161;-84
2020/12/18 02:59:39;;;;;;;56.50;25.05;;;;;;;7.43;55.04;101928.53;1763137;79;21811;-81
2020/12/18 03:02:07;;;;;;;52.35;22.37;;;;;;;7.43;55.12;101931.20;1775351;80;21202;-79
2020/12/18 03:04:35;;;;;;;51.48;24.47;;;;;;;7.46;55.02;101929.67;1770484;80;21188;-84
2020/12/18 03:07:08;;;;;;;53.92;23.57;;;;;;;7.48;54.91;101929.08;1779501;80;21185;-80
2020/12/18 03:09:37;;;;;;;40.08;18.07;;;;;;;7.47;54.83;101926.05;1786786;80;21392;-80
2020/12/18 03:12:06;;;;;;;44.60;21.62;;;;;;;7.43;54.86;101927.20;1758862;81;22282;-79
2020/12/18 03:14:34;;;;;;;46.23;23.10;;;;;;;7.39;54.94;101931.02;1786979;80;21190;-80
2020/12/18 03:17:03;;;;;;;41.25;20.70;;;;;;;7.04;55.77;101927.98;1788865;80;21525;-78
2020/12/18 03:19:34;;;;;;;41.98;20.02;;;;;;;6.99;55.94;101928.29;1757660;81;21201;-81
2020/12/18 03:22:03;;;;;;;41.15;19.48;;;;;;;7.00;55.94;101923.37;1734851;81;21621;-80
2020/12/18 03:24:50;;;;;;;38.02;18.50;;;;;;;7.04;55.83;101920.88;1757923;81;21487;-78
2020/12/18 03:27:36;;;;;;;37.95;17.85;;;;;;;6.99;55.86;101918.97;1759784;81;21182;-77
2020/12/18 03:30:06;;;;;;;35.58;16.85;;;;;;;6.95;55.92;101920.14;1761001;81;21196;-78
2020/12/18 03:32:34;;;;;;;42.08;20.32;;;;;;;6.90;56.01;101912.90;1761571;81;21134;-78
2020/12/18 03:35:07;;;;;;;38.30;18.87;;;;;;;6.87;56.13;101918.45;1757936;81;21166;-79
2020/12/18 03:37:36;;;;;;;37.93;20.48;;;;;;;6.86;56.16;101908.75;1758917;81;21814;-78
2020/12/18 03:40:05;;;;;;;41.98;21.10;;;;;;;7.16;55.59;101915.70;1758832;81;21165;-84
2020/12/18 03:42:35;;;;;;;41.33;20.55;;;;;;;7.24;55.25;101910.72;1758333;81;21059;-85
2020/12/18 03:45:04;;;;;;;49.58;23.18;;;;;;;7.24;55.19;101914.72;1759009;81;21214;-83
2020/12/18 03:47:42;;;;;;;61.73;28.10;;;;;;;7.22;55.16;101912.61;1735981;81;21609;-78
2020/12/18 03:50:12;;;;;;;58.63;26.27;;;;;;;7.22;55.20;101914.83;1757853;81;21225;-80
2020/12/18 03:52:42;;;;;;;61.95;30.17;;;;;;;7.24;55.26;101912.05;1758468;81;21270;-84
2020/12/18 03:55:10;;;;;;;57.88;27.60;;;;;;;7.24;55.26;101906.24;1759038;81;21495;-80
2020/12/18 03:57:42;;;;;;;49.33;23.65;;;;;;;7.24;55.22;101908.91;1755361;81;21214;-82
2020/12/18 04:00:16;;;;;;;46.28;23.02;;;;;;;7.24;55.15;101910.23;1757764;81;21138;-80
2020/12/18 04:02:49;;;;;;;42.67;21.57;;;;;;;7.16;55.17;101905.03;1758175;81;22035;-80
2020/12/18 04:05:18;;;;;;;38.05;20.72;;;;;;;7.12;55.32;101899.05;1757981;81;21213;-83
2020/12/18 04:07:47;;;;;;;43.55;20.75;;;;;;;7.09;55.33;101901.45;1758072;81;21190;-77
2020/12/18 04:10:16;;;;;;;39.27;19.60;;;;;;;7.04;55.34;101902.68;1756948;81;21197;-78
2020/12/18 04:12:48;;;;;;;44.63;21.40;;;;;;;6.81;55.88;101894.40;1755080;81;21182;-79
2020/12/18 04:15:16;;;;;;;40.17;22.05;;;;;;;6.96;55.71;101899.69;1758667;81;21375;-81
2020/12/18 04:17:46;;;;;;;43.05;20.30;;;;;;;6.69;56.40;101903.16;1758358;81;21182;-77
2020/12/18 04:20:15;;;;;;;40.43;19.02;;;;;;;6.65;56.65;101904.79;1758789;81;21150;-78
2020/12/18 04:22:46;;;;;;;40.78;20.40;;;;;;;6.64;56.78;101904.42;1758386;81;21189;-78
2020/12/18 04:25:18;;;;;;;39.65;18.50;;;;;;;6.94;56.22;101905.09;1754879;81;21184;-78
2020/12/18 04:27:47;;;;;;;32.75;16.55;;;;;;;7.08;55.86;101906.38;1758760;81;22334;-79
2020/12/18 04:30:16;;;;;;;36.45;18.23;;;;;;;7.07;56.04;101907.34;1758372;81;21676;-78
2020/12/18 04:32:45;;;;;;;33.30;18.55;;;;;;;6.83;56.58;101907.13;1758375;80;21206;-78
2020/12/18 04:35:20;;;;;;;37.05;19.02;;;;;;;7.05;56.27;101913.26;1758769;81;21174;-81
2020/12/18 04:38:02;;;;;;;37.03;18.65;;;;;;;7.30;55.66;101915.64;1756861;81;21166;-78
2020/12/18 04:40:33;;;;;;;31.12;17.07;;;;;;;7.38;55.42;101913.33;1756811;81;21170;-80
2020/12/18 04:43:03;;;;;;;33.00;16.75;;;;;;;7.43;55.29;101920.53;1757924;81;21205;-78
2020/12/18 04:45:30;;;;;;;29.67;16.10;;;;;;;7.45;55.09;101916.42;1735674;81;21747;-77
2020/12/18 04:48:01;;;;;;;38.38;18.57;;;;;;;7.49;54.96;101920.12;1758571;81;21194;-79
2020/12/18 04:50:32;;;;;;;41.95;21.37;;;;;;;7.50;54.94;101918.33;1758615;80;21206;-77
2020/12/18 04:53:17;;;;;;;44.90;23.52;;;;;;;7.51;54.83;101920.89;1738819;81;22437;-81
2020/12/18 04:55:53;;;;;;;44.98;24.18;;;;;;;7.53;54.79;101924.29;1735057;81;21186;-77
2020/12/18 04:58:23;;;;;;;56.77;32.98;;;;;;;7.55;54.77;101930.39;1735618;81;21200;-77
2020/12/18 05:00:54;;;;;;;58.20;33.67;;;;;;;7.56;54.73;101930.76;1735640;81;21154;-77
2020/12/18 05:03:34;;;;;;;50.52;30.92;;;;;;;7.60;54.69;101928.27;1732850;80;21189;-78
2020/12/18 05:06:04;;;;;;;49.18;27.05;;;;;;;7.66;54.64;101935.48;1782164;78;22674;-79
2020/12/18 05:08:33;;;;;;;40.15;21.10;;;;;;;7.69;54.50;101928.13;1777560;79;21190;-77
2020/12/18 05:11:24;;;;;;;38.02;19.17;;;;;;;7.71;54.33;101931.53;1800920;79;21182;-79
2020/12/18 05:13:55;;;;;;;33.10;17.77;;;;;;;7.69;54.24;101932.61;1785758;79;21513;-78
2020/12/18 05:16:24;;;;;;;27.87;17.40;;;;;;;7.65;54.16;101933.77;1745594;81;21172;-79
2020/12/18 05:19:03;;;;;;;28.32;18.02;;;;;;;7.66;54.19;101940.81;1764536;81;22712;-79
2020/12/18 05:21:40;;;;;;;31.02;17.05;;;;;;;7.65;54.17;101941.77;1772531;79;21179;-78
2020/12/18 05:24:10;;;;;;;25.85;16.00;;;;;;;7.67;54.23;101942.52;1782877;79;21180;-78
2020/12/18 05:26:39;;;;;;;30.65;16.75;;;;;;;7.70;54.20;101947.66;1735910;82;21568;-80
2020/12/18 05:29:09;;;;;;;31.73;17.60;;;;;;;7.73;54.14;101948.79;1744883;81;21168;-78
2020/12/18 05:31:58;;;;;;;30.57;17.25;;;;;;;7.75;54.06;101951.71;1736221;82;21435;-78
2020/12/18 05:34:28;;;;;;;28.45;16.67;;;;;;;7.80;53.97;101946.91;1733144;82;21126;-78
2020/12/18 05:37:01;;;;;;;38.30;19.55;;;;;;;7.83;53.92;101951.20;1803236;78;21105;-78
2020/12/18 05:39:34;;;;;;;35.85;21.70;;;;;;;7.87;53.86;101950.04;1795433;78;21108;-79
2020/12/18 05:42:02;;;;;;;40.60;25.43;;;;;;;7.93;53.78;101957.61;1781156;79;21128;-78
2020/12/18 05:44:32;;;;;;;40.12;24.35;;;;;;;7.98;53.58;101958.64;1783957;79;21425;-79
2020/12/18 05:47:07;;;;;;;42.00;25.68;;;;;;;8.00;53.48;101956.25;1816272;78;21202;-78
2020/12/18 05:49:38;;;;;;;40.12;25.62;;;;;;;8.03;53.36;101961.36;1803635;79;21532;-77
2020/12/18 05:52:11;;;;;;;39.48;25.10;;;;;;;7.62;54.28;101961.00;1775347;78;21648;-78
2020/12/18 05:54:46;;;;;;;39.95;25.65;;;;;;;7.58;54.37;101962.16;1789089;78;21207;-78
2020/12/18 05:57:15;;;;;;;40.67;25.23;;;;;;;7.72;54.18;101965.27;1785737;79;21687;-78
2020/12/18 05:59:49;;;;;;;41.30;26.60;;;;;;;7.65;54.14;101963.11;1797609;79;21244;-79
2020/12/18 06:02:19;;;;;;;46.05;29.67;;;;;;;8.01;53.38;101964.63;1790441;79;21606;-78
2020/12/18 06:05:06;;;;;;;53.25;33.55;;;;;;;7.72;53.96;101957.72;1758222;79;21034;-76
2020/12/18 06:07:40;;;;;;;51.08;33.00;;;;;;;7.65;54.16;101959.96;1764962;78;21254;-79
2020/12/18 06:10:15;;;;;;;53.85;34.90;;;;;;;7.65;54.18;101959.96;1793832;78;21355;-79
2020/12/18 06:13:02;;;;;;;56.75;38.02;;;;;;;7.63;54.19;101962.74;1738885;80;20938;-79
2020/12/18 06:15:33;;;;;;;63.70;41.35;;;;;;;7.64;54.20;101970.26;1751438;80;21084;-79
2020/12/18 06:18:03;;;;;;;66.15;39.75;;;;;;;8.02;53.27;101962.32;1749347;78;20965;-78
2020/12/18 06:20:37;;;;;;;63.95;38.85;;;;;;;7.95;53.28;101973.06;1781009;77;21633;-78
2020/12/18 06:23:24;;;;;;;61.65;38.45;;;;;;;8.13;52.97;101971.80;1818268;76;22530;-79
2020/12/18 06:26:13;;;;;;;64.10;38.67;;;;;;;8.13;52.84;101970.47;1796857;77;21645;-78
2020/12/18 06:28:47;;;;;;;55.58;36.65;;;;;;;8.17;52.74;101975.57;1690896;82;22253;-77
2020/12/18 06:31:27;;;;;;;55.15;37.63;;;;;;;8.19;52.70;101974.52;1711834;81;21607;-78
2020/12/18 06:34:03;;;;;;;59.53;40.70;;;;;;;8.20;52.63;101978.04;1782700;77;21236;-77
2020/12/18 06:36:51;;;;;;;55.17;37.73;;;;;;;8.21;52.51;101982.41;1737110;79;22498;-78
2020/12/18 06:39:37;;;;;;;54.45;36.63;;;;;;;8.22;52.50;101977.44;1694962;82;21592;-78
2020/12/18 06:42:22;;;;;;;53.08;33.15;;;;;;;8.21;52.54;101978.41;1707195;81;21157;-80
2020/12/18 06:45:02;;;;;;;49.70;33.80;;;;;;;8.22;52.49;101976.11;1718882;81;21117;-79
2020/12/18 06:48:28;;;;;;;43.33;27.48;;;;;;;8.27;52.46;101978.00;1787431;78;24510;-78
2020/12/18 06:51:29;;;;;;;49.10;27.93;;;;;;;8.26;52.36;101976.27;1772185;78;22838;-79
2020/12/18 06:54:17;;;;;;;42.90;26.07;;;;;;;8.21;52.32;101973.07;1744744;80;21186;-79
2020/12/18 06:56:54;;;;;;;50.65;31.00;;;;;;;8.21;52.29;101983.27;1738237;80;21378;-79
2020/12/18 06:59:34;;;;;;;42.85;27.58;;;;;;;8.22;52.23;101982.78;1768946;79;21208;-81
2020/12/18 07:02:38;;;;;;;36.90;22.80;;;;;;;8.28;52.20;101987.23;1780955;78;23360;-79
2020/12/18 07:05:35;;;;;;;41.80;25.23;;;;;;;8.25;52.11;101987.92;1721936;82;21101;-78
2020/12/18 07:08:11;;;;;;;48.00;29.45;;;;;;;8.26;52.02;101988.28;1715076;82;21383;-81
2020/12/18 07:10:53;;;;;;;52.53;33.25;;;;;;;8.25;52.04;101987.92;1751248;80;21136;-78
2020/12/18 07:13:38;;;;;;;39.35;26.12;;;;;;;8.25;51.97;101992.77;1731712;80;21102;-80
2020/12/18 07:16:10;;;;;;;38.13;23.77;;;;;;;8.21;51.85;101988.59;1717354;81;21116;-77
2020/12/18 07:18:42;;;;;;;40.12;25.02;;;;;;;8.14;51.80;101993.52;1728719;81;21102;-78
2020/12/18 07:21:13;;;;;;;41.30;25.52;;;;;;;8.10;51.89;101992.02;1709058;81;21307;-79
2020/12/18 07:23:43;;;;;;;42.13;25.27;;;;;;;8.08;51.94;101987.28;1739585;80;21169;-77
2020/12/18 07:26:12;;;;;;;46.98;27.42;;;;;;;8.09;51.91;101988.12;1717019;81;21640;-77
2020/12/18 07:28:43;;;;;;;34.98;22.98;;;;;;;8.10;51.97;101984.02;1748116;80;21132;-77
2020/12/18 07:31:27;;;;;;;32.45;21.00;;;;;;;8.13;51.93;101989.63;1710053;82;21434;-79
2020/12/18 07:34:04;;;;;;;41.77;23.90;;;;;;;8.13;51.79;101989.15;1732737;81;21397;-78
2020/12/18 07:36:36;;;;;;;37.85;23.30;;;;;;;8.14;51.76;101990.85;1734785;81;21177;-77
2020/12/18 07:40:19;;;;;;;;;;;;;;;;;;;;;
2020/12/18 07:53:43;;;;;;;35.48;21.05;;;;;;;8.07;51.90;101988.21;1823189;76;22647;-80
2020/12/18 07:56:27;;;;;;;38.15;22.77;;;;;;;8.06;51.96;101992.33;1776359;78;21109;-80
2020/12/18 07:59:05;;;;;;;36.03;22.25;;;;;;;7.98;51.98;101992.84;1798115;78;21546;-78
2020/12/18 08:01:37;;;;;;;38.08;22.37;;;;;;;7.72;52.89;101993.73;1784613;79;21129;-77
2020/12/18 08:04:11;;;;;;;33.05;20.80;;;;;;;7.71;52.88;101992.87;1806304;78;21583;-78
2020/12/18 08:06:42;;;;;;;36.85;20.82;;;;;;;7.73;52.82;101998.12;1793155;78;21072;-78
2020/12/18 08:09:15;;;;;;;37.60;20.92;;;;;;;7.74;52.75;101998.50;1804066;78;21094;-78
2020/12/18 08:11:45;;;;;;;33.00;19.62;;;;;;;7.74;52.66;102002.02;1789948;77;21209;-78
2020/12/18 08:14:14;;;;;;;34.67;21.05;;;;;;;7.71;52.55;101997.36;1789612;77;21171;-78
2020/12/18 08:16:43;;;;;;;31.12;19.25;;;;;;;7.61;52.55;101995.30;1798201;77;21127;-77
2020/12/18 08:19:13;;;;;;;39.63;20.85;;;;;;;7.58;52.73;101996.83;1793289;77;21582;-77
2020/12/18 08:21:44;;;;;;;37.83;21.07;;;;;;;7.57;52.80;101991.12;1798928;77;22167;-78
2020/12/18 08:24:30;;;;;;;36.15;20.82;;;;;;;7.59;52.82;101994.56;1793644;78;21346;-77
2020/12/18 08:27:04;;;;;;;53.60;27.45;;;;;;;7.59;52.77;101991.90;1791810;77;21121;-78
2020/12/18 08:29:32;;;;;;;57.45;29.18;;;;;;;7.57;52.73;101986.27;1806582;77;21551;-79
2020/12/18 08:32:02;;;;;;;61.37;30.05;;;;;;;7.50;52.78;101988.98;1771615;79;21088;-80
2020/12/18 08:34:33;;;;;;;57.75;27.50;;;;;;;7.42;52.74;101984.62;1794068;77;21109;-78
2020/12/18 08:37:01;;;;;;;38.63;19.62;;;;;;;7.36;52.90;101984.08;1780337;79;21340;-80
2020/12/18 08:39:34;;;;;;;24.65;13.88;;;;;;;7.30;52.47;101980.45;1792153;79;21108;-81
2020/12/18 08:42:03;;;;;;;23.85;12.88;;;;;;;7.22;52.22;101965.91;1796318;79;21112;-77
2020/12/18 08:44:41;;;;;;;16.10;9.93;;;;;;;7.11;52.23;101970.14;1795813;77;21077;-79
2020/12/18 08:47:24;;;;;;;16.27;10.20;;;;;;;7.04;52.19;101972.84;1808850;77;21100;-79
2020/12/18 08:49:55;;;;;;;14.00;9.35;;;;;;;6.96;51.90;101972.46;1794692;77;21542;-80
2020/12/18 08:52:26;;;;;;;12.75;8.78;;;;;;;6.94;51.77;101967.69;1800299;78;21136;-79
2020/12/18 08:55:06;;;;;;;15.58;10.38;;;;;;;6.98;51.48;101967.88;1786197;79;21121;-80
2020/12/18 08:57:36;;;;;;;19.55;12.20;;;;;;;7.03;51.73;101971.09;1796110;79;21101;-78
2020/12/18 09:00:23;;;;;;;22.90;14.53;;;;;;;7.08;51.98;101968.99;1803275;77;21424;-79
2020/12/18 09:02:58;;;;;;;24.52;13.98;;;;;;;7.11;52.15;101968.80;1788110;80;21193;-78
2020/12/18 09:05:28;;;;;;;22.93;12.88;;;;;;;7.09;51.84;101967.21;1787995;78;21157;-79
2020/12/18 09:08:00;;;;;;;21.52;13.18;;;;;;;7.05;52.03;101970.55;1791105;79;21143;-79
2020/12/18 09:10:34;;;;;;;22.10;12.80;;;;;;;7.03;52.19;101965.77;1785888;77;21080;-79
2020/12/18 09:13:22;;;;;;;22.13;12.35;;;;;;;6.99;51.77;101966.06;1802144;77;21607;-78
2020/12/18 09:15:54;;;;;;;18.70;11.80;;;;;;;6.95;51.55;101962.77;1799603;77;21182;-78
2020/12/18 09:18:24;;;;;;;30.90;17.92;;;;;;;6.88;51.50;101960.10;1797029;77;21149;-78
2020/12/18 09:20:52;;;;;;;19.60;13.98;;;;;;;6.86;51.67;101959.36;1789464;79;21458;-78
2020/12/18 09:23:31;;;;;;;22.17;13.72;;;;;;;6.92;52.10;101958.11;1771260;79;21093;-80
2020/12/18 09:26:00;;;;;;;19.62;11.93;;;;;;;6.96;51.87;101959.14;1796951;77;21069;-82
2020/12/18 09:28:37;;;;;;;23.15;13.98;;;;;;;6.98;51.95;101955.89;1800629;77;21512;-78
2020/12/18 09:31:07;;;;;;;26.10;14.00;;;;;;;6.96;51.96;101958.29;1799431;77;21132;-79
2020/12/18 09:33:37;;;;;;;36.35;21.48;;;;;;;6.91;52.33;101951.08;1804489;77;21512;-78
2020/12/18 09:36:11;;;;;;;22.80;14.65;;;;;;;6.97;52.69;101958.19;1793924;77;21543;-79
2020/12/18 09:38:47;;;;;;;23.25;14.40;;;;;;;7.03;52.60;101960.92;1794077;77;21622;-78
2020/12/18 09:41:18;;;;;;;25.65;14.85;;;;;;;7.03;52.47;101951.12;1793008;77;21592;-80
2020/12/18 09:43:47;;;;;;;26.60;16.15;;;;;;;6.96;52.19;101948.97;1798979;79;21136;-79
2020/12/18 09:46:18;;;;;;;36.73;19.90;;;;;;;6.86;52.27;101950.04;1769077;77;21164;-79
2020/12/18 09:48:47;;;;;;;33.67;18.90;;;;;;;6.84;52.61;101953.25;1800158;78;21129;-78
2020/12/18 09:51:15;;;;;;;46.83;26.23;;;;;;;6.85;52.78;101948.30;1804589;77;21205;-78
2020/12/18 09:53:44;;;;;;;47.48;23.90;;;;;;;6.90;53.07;101954.19;1800443;77;21575;-79
2020/12/18 09:56:14;;;;;;;35.28;21.52;;;;;;;7.00;53.19;101958.48;1808215;77;21184;-78
2020/12/18 09:58:52;;;;;;;27.42;17.40;;;;;;;7.09;53.11;101953.41;1812745;77;22439;-80
2020/12/18 10:01:23;;;;;;;23.77;14.73;;;;;;;7.17;53.02;101956.03;1811918;77;21170;-79
2020/12/18 10:03:55;;;;;;;24.32;15.10;;;;;;;7.21;52.67;101948.22;1802117;77;21201;-79
2020/12/18 10:06:39;;;;;;;25.35;15.50;;;;;;;7.20;52.68;101947.85;1753675;78;21358;-77
2020/12/18 10:09:08;;;;;;;31.12;18.50;;;;;;;7.25;52.87;101951.07;1783309;77;21709;-78
2020/12/18 10:11:37;;;;;;;31.15;18.52;;;;;;;7.33;52.76;101946.95;1805195;77;21105;-78
2020/12/18 10:14:05;;;;;;;29.05;18.92;;;;;;;7.35;52.71;101948.17;1826747;77;21094;-77
2020/12/18 10:16:34;;;;;;;29.07;18.30;;;;;;;7.34;52.41;101944.66;1805517;77;21080;-79
2020/12/18 10:19:02;;;;;;;28.12;17.55;;;;;;;7.32;52.59;101943.91;1796888;78;22062;-78
2020/12/18 10:21:34;;;;;;;24.70;16.85;;;;;;;7.36;52.51;101937.91;1803083;77;21097;-80
2020/12/18 10:24:02;;;;;;;28.05;16.73;;;;;;;7.37;52.53;101936.95;1798634;77;21968;-79
2020/12/18 10:26:32;;;;;;;27.17;17.10;;;;;;;7.42;52.52;101936.16;1799747;77;21484;-79
2020/12/18 10:29:03;;;;;;;36.73;20.80;;;;;;;7.46;52.48;101928.82;1797835;77;21073;-81
2020/12/18 10:31:33;;;;;;;34.27;19.95;;;;;;;7.45;52.33;101933.30;1795511;79;21364;-79
2020/12/18 10:34:03;;;;;;;33.83;19.73;;;;;;;7.41;52.38;101922.95;1798771;77;21599;-79
2020/12/18 10:36:32;;;;;;;37.38;21.17;;;;;;;7.38;52.48;101927.51;1798537;79;21136;-79
2020/12/18 10:39:00;;;;;;;37.28;20.00;;;;;;;7.43;52.50;101933.02;1800696;77;21144;-78
2020/12/18 10:41:29;;;;;;;26.70;16.48;;;;;;;7.46;52.45;101930.16;1797050;77;21108;-79
2020/12/18 10:43:59;;;;;;;23.67;15.32;;;;;;;7.47;52.19;101922.52;1793158;77;22640;-79
2020/12/18 10:46:29;;;;;;;27.45;16.82;;;;;;;7.48;52.17;101925.08;1793888;77;21136;-78
2020/12/18 10:48:58;;;;;;;28.10;17.07;;;;;;;7.52;52.15;101918.59;1781117;77;21124;-78
2020/12/18 10:51:28;;;;;;;25.48;15.88;;;;;;;7.53;52.00;101917.63;1795341;79;21116;-78
2020/12/18 10:53:57;;;;;;;22.95;14.47;;;;;;;7.48;51.95;101915.75;1801311;77;21093;-77
2020/12/18 10:56:25;;;;;;;19.82;13.90;;;;;;;7.40;51.97;101912.73;1797944;77;21339;-79
2020/12/18 10:58:53;;;;;;;23.40;14.98;;;;;;;7.32;52.10;101909.75;1777276;79;21125;-78
2020/12/18 11:01:23;;;;;;;25.32;15.63;;;;;;;7.25;52.21;101917.75;1798249;79;21103;-78
2020/12/18 11:03:51;;;;;;;26.05;16.05;;;;;;;7.24;52.27;101918.72;1794610;79;21108;-78
2020/12/18 11:06:20;;;;;;;29.12;15.90;;;;;;;7.23;52.28;101919.68;1795884;76;21132;-80
2020/12/18 11:08:48;;;;;;;26.80;15.65;;;;;;;7.25;52.45;101917.75;1795209;77;21285;-80
2020/12/18 11:11:16;;;;;;;26.75;17.10;;;;;;;7.27;52.39;101911.86;1797095;77;21128;-79
2020/12/18 11:13:46;;;;;;;23.52;15.08;;;;;;;7.25;52.47;101919.09;1794268;77;21123;-80
2020/12/18 11:16:16;;;;;;;25.95;18.37;;;;;;;7.28;52.66;101915.75;1791012;77;21128;-79
2020/12/18 11:18:46;;;;;;;26.40;17.90;;;;;;;7.34;52.71;101916.66;1802363;77;21089;-79
2020/12/18 11:21:15;;;;;;;24.70;16.55;;;;;;;7.42;52.64;101918.84;1797029;79;21405;-80
2020/12/18 11:23:43;;;;;;;22.52;14.18;;;;;;;7.44;52.50;101912.91;1793676;79;21104;-80
2020/12/18 11:26:14;;;;;;;20.43;14.45;;;;;;;7.47;52.41;101903.86;1790981;77;21154;-77
2020/12/18 11:28:42;;;;;;;23.50;14.45;;;;;;;7.50;52.35;101908.52;1772053;79;21559;-79
2020/12/18 11:31:10;;;;;;;21.85;14.90;;;;;;;7.54;52.17;101906.03;1805740;77;21082;-78
2020/12/18 11:33:40;;;;;;;20.62;13.93;;;;;;;7.58;52.05;101903.50;1796515;79;21348;-77
2020/12/18 11:36:08;;;;;;;21.37;14.38;;;;;;;7.60;52.05;101908.27;1793220;79;21108;-79
2020/12/18 11:38:40;;;;;;;20.17;14.38;;;;;;;7.65;51.91;101906.62;1796919;77;21512;-78
2020/12/18 11:41:10;;;;;;;18.60;11.93;;;;;;;7.67;51.84;101910.03;1779112;79;21547;-79
2020/12/18 11:43:40;;;;;;;26.62;17.77;;;;;;;7.69;51.74;101905.95;1794540;77;21109;-79
2020/12/18 11:46:09;;;;;;;30.45;20.27;;;;;;;7.72;51.75;101911.05;1796931;77;21570;-77
2020/12/18 11:48:40;;;;;;;82.05;65.67;;;;;;;7.72;51.75;101911.05;1794059;77;21141;-79
2020/12/18 11:51:08;;;;;;;30.82;19.70;;;;;;;7.73;51.70;101907.45;1798358;77;21168;-79
2020/12/18 11:53:36;;;;;;;26.75;15.83;;;;;;;7.69;51.79;101908.13;1780839;79;21907;-80
2020/12/18 11:56:04;;;;;;;26.35;17.35;;;;;;;7.65;51.85;101902.62;1801752;77;21179;-80